This is the latest recevied weather packets stored in our database for station/object HJ3GNC-11. If no packets are shown the sender has not sent any weather packets the latest 10 day(s).
| Time | Temp. | Humidity | Pressure | Rain* | Wind** | Luminosity | Snow |
|---|---|---|---|---|---|---|---|
| 1777914933 | 19.44° C | 77% | 1015 hPa | 0 mm | - | - | - |
| 1777913988 | 18.33° C | 77% | 1015 hPa | 0 mm | - | - | - |
| 1777913029 | 17.22° C | 77% | 1015 hPa | 0 mm | - | - | - |
| 1777910866 | 19.44° C | 84% | 1016 hPa | 0 mm | - | - | - |
| 1777909635 | 18.33° C | 84% | 1016 hPa | 0 mm | - | - | - |
| 1777908534 | 17.22° C | 84% | 1017 hPa | 0 mm | - | - | - |
| 1777907200 | 16.11° C | 84% | 1017 hPa | 0 mm | - | - | - |
| 1777906024 | 15° C | 84% | 1017 hPa | 0 mm | - | - | - |
| 1777904965 | 17.22° C | 92% | 1018 hPa | 0 mm | - | - | - |
| 1777902581 | 16.11° C | 92% | 1018 hPa | 0 mm | - | - | - |
| 1777901350 | 15° C | 92% | 1018 hPa | 0 mm | - | - | - |
| 1777900220 | 13.89° C | 92% | 1018 hPa | 0 mm | - | - | - |
| 1777899159 | 12.78° C | 92% | 1018 hPa | 0 mm | - | - | - |
| 1777897866 | 11.67° C | 92% | 1018 hPa | 0 mm | - | - | - |
| 1777896587 | 13.89° C | 95% | 1018 hPa | 0 mm | - | - | - |
| 1777895410 | 12.78° C | 95% | 1018 hPa | 0 mm | - | - | - |
| 1777894382 | 11.67° C | 95% | 1018 hPa | 0 mm | - | - | - |
| 1777893182 | 11.67° C | 98% | 1018 hPa | 0 mm | - | - | - |
| 1777891061 | 11.67° C | 97% | 1018 hPa | 0 mm | - | - | - |
| 1777890036 | 11.67° C | 98% | 1018 hPa | 0 mm | - | - | - |
| 1777889058 | 11.67° C | 98% | 1018 hPa | 0 mm | - | - | - |
| 1777888088 | 11.67° C | 97% | 1018 hPa | 0 mm | - | - | - |
| 1777887139 | 11.67° C | 97% | 1018 hPa | 0 mm | - | - | - |
| 1777886171 | 11.67° C | 97% | 1018 hPa | 0 mm | - | - | - |
| 1777885227 | 11.67° C | 97% | 1018 hPa | 0 mm | - | - | - |
* Rain latest hour (hover to see other rain measurements)
** Current wind speed in m/s (hover to see current wind gust speed)